Time;durP1;ratioP1;P1;durP2;ratioP2;P2;SDS_P1;SDS_P2;PMS_P1;PMS_P2;Temp;Humidity;BMP_temperature;BMP_pressure;BME280_temperature;BME280_humidity;BME280_pressure;Samples;Min_cycle;Max_cycle;Signal;HPM_P1;HPM_P2
2022/11/12 00:02:20;;;;;;;12.07;7.05;;;10.50;87.20;;;;;;5006698;28;20279;-73
2022/11/12 00:04:46;;;;;;;12.13;6.97;;;10.40;87.50;;;;;;5006255;28;20264;-74
2022/11/12 00:07:12;;;;;;;13.38;7.65;;;10.40;87.60;;;;;;5005444;28;20217;-73
2022/11/12 00:09:38;;;;;;;14.90;7.53;;;10.40;87.70;;;;;;5004777;28;20236;-73
2022/11/12 00:12:04;;;;;;;16.33;8.15;;;10.40;87.80;;;;;;5009748;28;20223;-73
2022/11/12 00:14:29;;;;;;;13.93;7.43;;;10.40;87.70;;;;;;5007374;28;20662;-73
2022/11/12 00:16:55;;;;;;;15.98;7.80;;;10.40;87.70;;;;;;5006402;28;20269;-73
2022/11/12 00:19:21;;;;;;;10.70;6.90;;;10.30;87.40;;;;;;4990908;28;21169;-73
2022/11/12 00:21:46;;;;;;;11.88;7.20;;;10.30;87.30;;;;;;5006294;28;20195;-73
2022/11/12 00:24:12;;;;;;;11.88;7.18;;;10.30;87.40;;;;;;5009664;28;20188;-72
2022/11/12 00:26:37;;;;;;;10.52;7.03;;;10.30;87.50;;;;;;5008521;28;20188;-72
2022/11/12 00:29:03;;;;;;;12.73;6.68;;;10.20;87.10;;;;;;5008707;28;20193;-72
2022/11/12 00:31:29;;;;;;;9.55;6.93;;;10.20;86.90;;;;;;5005819;28;20189;-72
2022/11/12 00:33:55;;;;;;;13.88;7.45;;;10.20;87.00;;;;;;5006594;28;20809;-72
2022/11/12 00:36:20;;;;;;;13.75;7.38;;;10.20;87.10;;;;;;4988491;28;21013;-73
2022/11/12 00:38:46;;;;;;;10.80;6.85;;;10.30;87.40;;;;;;5007073;28;20185;-72
2022/11/12 00:41:11;;;;;;;17.33;7.13;;;10.30;87.40;;;;;;5009354;28;20200;-73
2022/11/12 00:43:37;;;;;;;20.70;8.57;;;10.30;87.60;;;;;;5006726;28;20189;-73
2022/11/12 00:46:03;;;;;;;10.90;6.38;;;10.30;87.70;;;;;;4989567;28;20185;-73
2022/11/12 00:48:29;;;;;;;11.65;6.85;;;10.30;87.40;;;;;;5006317;28;20302;-72
2022/11/12 00:51:03;;;;;;;11.73;6.90;;;10.30;87.10;;;;;;5004998;28;20291;-72
2022/11/12 00:53:29;;;;;;;12.32;7.45;;;10.30;87.40;;;;;;5005647;28;20192;-72
2022/11/12 00:56:00;;;;;;;10.25;6.68;;;10.40;87.30;;;;;;5006087;28;20197;-73
2022/11/12 00:58:29;;;;;;;12.63;6.88;;;10.30;87.00;;;;;;4989151;28;22233;-71
2022/11/12 01:00:55;;;;;;;13.40;7.65;;;10.40;87.20;;;;;;5003598;28;20192;-73
2022/11/12 01:03:20;;;;;;;12.30;6.47;;;10.30;87.10;;;;;;5007431;28;20185;-72
2022/11/12 01:05:46;;;;;;;9.52;6.40;;;10.40;87.20;;;;;;5005747;28;20185;-72
2022/11/12 01:08:12;;;;;;;11.65;7.15;;;10.30;87.40;;;;;;5002951;28;20623;-72
2022/11/12 01:10:37;;;;;;;9.70;7.07;;;10.40;87.60;;;;;;5005202;28;20649;-73
2022/11/12 01:13:03;;;;;;;12.38;7.03;;;10.40;87.60;;;;;;5006584;28;20578;-73
2022/11/12 01:15:29;;;;;;;11.30;6.95;;;10.30;87.10;;;;;;5006049;28;20251;-72
2022/11/12 01:17:55;;;;;;;12.85;7.45;;;10.30;87.10;;;;;;5002614;28;20268;-72
2022/11/12 01:20:21;;;;;;;13.23;7.55;;;10.30;86.90;;;;;;4986770;28;20983;-72
2022/11/12 01:22:46;;;;;;;15.50;7.53;;;10.30;86.80;;;;;;5007889;28;20181;-73
2022/11/12 01:25:12;;;;;;;11.38;7.05;;;10.30;86.80;;;;;;5003758;28;20181;-73
2022/11/12 01:27:37;;;;;;;9.80;5.85;;;10.30;86.80;;;;;;5006762;28;20652;-72
2022/11/12 01:30:04;;;;;;;10.15;6.47;;;10.30;86.90;;;;;;5005741;28;20229;-73
2022/11/12 01:32:34;;;;;;;10.40;7.18;;;10.30;86.80;;;;;;5005290;28;20204;-73
2022/11/12 01:35:00;;;;;;;9.23;5.82;;;10.30;86.60;;;;;;4986745;28;20193;-73
2022/11/12 01:37:25;;;;;;;9.38;5.82;;;10.30;86.90;;;;;;5005500;28;20189;-73
2022/11/12 01:39:51;;;;;;;8.55;5.70;;;10.40;87.90;;;;;;5005593;28;20176;-73
2022/11/12 01:42:17;;;;;;;11.68;6.63;;;10.40;87.50;;;;;;5004222;28;20588;-73
2022/11/12 01:44:45;;;;;;;11.90;6.88;;;10.40;87.60;;;;;;4987673;28;20972;-73
2022/11/12 01:47:23;;;;;;;9.82;6.20;;;10.40;87.30;;;;;;4987213;28;20541;-73
2022/11/12 01:50:10;;;;;;;12.45;6.55;;;10.40;87.20;;;;;;5001117;28;20177;-73
2022/11/12 01:52:49;;;;;;;8.70;5.65;;;10.40;87.10;;;;;;5003758;28;21047;-73
2022/11/12 01:55:22;;;;;;;13.40;6.05;;;10.30;87.10;;;;;;5004764;28;20984;-73
2022/11/12 01:57:54;;;;;;;8.07;6.05;;;10.30;86.80;;;;;;5005110;28;20614;-73
2022/11/12 02:00:20;;;;;;;10.00;6.35;;;10.30;86.90;;;;;;4987411;28;20180;-73
2022/11/12 02:02:52;;;;;;;8.75;5.50;;;10.30;87.20;;;;;;5005811;28;20756;-73
2022/11/12 02:05:19;;;;;;;6.07;5.15;;;10.30;87.00;;;;;;5005085;28;20571;-72
2022/11/12 02:07:46;;;;;;;10.02;6.53;;;10.30;87.00;;;;;;5004847;28;20211;-72
2022/11/12 02:10:13;;;;;;;8.80;5.68;;;10.40;87.60;;;;;;5004356;28;20705;-72
2022/11/12 02:15:25;;;;;;;10.57;6.05;;;10.40;87.60;;;;;;5002270;28;20573;-73
2022/11/12 02:17:50;;;;;;;12.10;5.90;;;10.30;87.10;;;;;;5004890;28;20942;-73
2022/11/12 02:20:16;;;;;;;10.05;6.15;;;10.30;86.90;;;;;;5003639;28;20181;-73
2022/11/12 02:22:42;;;;;;;10.40;5.80;;;10.20;86.80;;;;;;5004612;28;20187;-73
2022/11/12 02:25:13;;;;;;;8.00;5.40;;;10.20;86.70;;;;;;5003145;28;20195;-73
2022/11/12 02:27:39;;;;;;;7.05;5.30;;;10.20;87.40;;;;;;5004514;28;20205;-73
2022/11/12 02:30:05;;;;;;;6.07;5.07;;;10.20;86.90;;;;;;4985872;28;20185;-73
2022/11/12 02:32:31;;;;;;;8.07;4.57;;;10.20;87.80;;;;;;5006049;28;20220;-73
2022/11/12 02:34:56;;;;;;;5.60;4.72;;;10.20;87.30;;;;;;5005766;28;20189;-73
2022/11/12 02:37:22;;;;;;;4.82;3.45;;;10.20;86.80;;;;;;4986105;28;20252;-73
2022/11/12 02:39:48;;;;;;;3.80;3.35;;;10.20;86.60;;;;;;5002610;28;20255;-72
2022/11/12 02:42:13;;;;;;;3.65;3.35;;;10.20;86.60;;;;;;5006386;28;20189;-73
2022/11/12 02:44:39;;;;;;;5.77;3.47;;;10.20;86.80;;;;;;5004672;28;20181;-73
2022/11/12 02:47:05;;;;;;;4.57;2.08;;;10.20;87.00;;;;;;5005381;28;20224;-73
2022/11/12 02:49:30;;;;;;;2.28;2.08;;;10.20;87.10;;;;;;5004943;28;20181;-73
2022/11/12 02:51:56;;;;;;;2.10;2.00;;;10.10;86.50;;;;;;5005082;28;20189;-73
2022/11/12 02:54:22;;;;;;;2.60;2.22;;;10.10;86.50;;;;;;5004164;28;20197;-73
2022/11/12 02:56:47;;;;;;;2.17;1.95;;;10.10;86.70;;;;;;4986921;28;20188;-73
2022/11/12 02:59:13;;;;;;;1.98;1.88;;;10.00;86.40;;;;;;5003319;28;20272;-72
2022/11/12 03:01:38;;;;;;;3.27;1.87;;;10.00;86.70;;;;;;5003511;28;20193;-72
2022/11/12 03:04:04;;;;;;;2.60;2.33;;;10.00;86.60;;;;;;5004498;28;20189;-73
2022/11/12 03:06:30;;;;;;;4.43;2.27;;;10.00;86.40;;;;;;5005440;28;20222;-73
2022/11/12 03:08:55;;;;;;;2.10;2.00;;;9.90;86.20;;;;;;5005349;28;20213;-73
2022/11/12 03:11:21;;;;;;;2.38;1.70;;;9.90;86.20;;;;;;5004087;28;20195;-73
2022/11/12 03:13:47;;;;;;;1.77;1.67;;;9.90;86.10;;;;;;4998280;28;20180;-75
2022/11/12 03:16:12;;;;;;;2.22;2.03;;;9.90;86.10;;;;;;5003839;28;20673;-73
2022/11/12 03:18:38;;;;;;;2.17;2.08;;;9.90;86.10;;;;;;4983570;28;20189;-73
2022/11/12 03:21:04;;;;;;;2.58;2.25;;;9.90;86.00;;;;;;5003752;28;20185;-73
2022/11/12 03:23:30;;;;;;;2.28;2.17;;;9.90;86.00;;;;;;5001925;28;20189;-73
2022/11/12 03:25:56;;;;;;;1.90;1.80;;;9.90;86.00;;;;;;5002112;28;20618;-74
2022/11/12 03:28:22;;;;;;;1.57;1.57;;;9.90;86.00;;;;;;4999746;28;20659;-72
2022/11/12 03:30:47;;;;;;;4.05;2.00;;;9.90;86.00;;;;;;5001647;28;20189;-73
2022/11/12 03:33:14;;;;;;;2.65;2.45;;;9.80;86.10;;;;;;5003034;28;20263;-73
2022/11/12 03:35:40;;;;;;;2.35;2.15;;;9.80;86.20;;;;;;5002649;28;20200;-74
2022/11/12 03:38:06;;;;;;;2.03;1.83;;;9.80;86.20;;;;;;5001552;28;20192;-73
2022/11/12 03:40:33;;;;;;;2.00;1.90;;;9.80;86.20;;;;;;5003888;28;20299;-72
2022/11/12 03:42:59;;;;;;;5.60;1.67;;;9.80;86.00;;;;;;5003028;28;20192;-73
2022/11/12 03:45:26;;;;;;;1.87;1.57;;;9.80;86.10;;;;;;5003748;28;20184;-72
2022/11/12 03:47:56;;;;;;;2.05;1.73;;;9.80;86.00;;;;;;5001632;28;20598;-73
2022/11/12 03:50:26;;;;;;;2.20;1.65;;;9.80;86.00;;;;;;5001639;28;20585;-74
2022/11/12 03:52:53;;;;;;;1.83;1.58;;;9.80;86.10;;;;;;5003083;28;20181;-73
2022/11/12 03:55:21;;;;;;;2.15;2.05;;;9.80;86.20;;;;;;5004628;28;20280;-73
2022/11/12 03:57:49;;;;;;;2.30;1.52;;;9.80;86.20;;;;;;4999699;28;20348;-73
2022/11/12 04:00:16;;;;;;;1.50;1.40;;;9.80;86.40;;;;;;5003721;28;20718;-71
2022/11/12 04:02:41;;;;;;;1.42;1.40;;;9.80;86.40;;;;;;5000796;28;20227;-72
2022/11/12 04:10:53;;;;;;;1.93;1.63;;;9.70;86.00;;;;;;5001957;28;20239;-73
2022/11/12 04:13:28;;;;;;;2.07;1.87;;;9.70;86.30;;;;;;5000466;28;20694;-73
2022/11/12 04:21:55;;;;;;;1.50;1.40;;;9.60;86.00;;;;;;5003795;28;20188;-73
2022/11/12 04:27:17;;;;;;;2.47;1.67;;;9.50;86.00;;;;;;5001581;28;20342;-73
2022/11/12 04:32:30;;;;;;;1.33;1.23;;;9.30;85.80;;;;;;5001382;28;20192;-73
2022/11/12 04:34:57;;;;;;;1.63;1.53;;;9.20;85.70;;;;;;5000841;28;20185;-72
2022/11/12 04:37:24;;;;;;;1.30;1.17;;;9.20;85.70;;;;;;5000198;28;20199;-72
2022/11/12 04:39:51;;;;;;;2.00;1.80;;;9.10;85.70;;;;;;5004473;28;20188;-71
2022/11/12 04:45:03;;;;;;;2.47;2.03;;;9.00;85.80;;;;;;5006222;28;20243;-73
2022/11/12 04:47:34;;;;;;;1.53;1.43;;;9.00;85.80;;;;;;5004502;28;21173;-73
2022/11/12 04:50:01;;;;;;;2.00;1.90;;;8.90;85.70;;;;;;5004991;28;20275;-73
2022/11/12 04:52:28;;;;;;;1.83;1.70;;;8.90;85.90;;;;;;5004294;28;20277;-73
2022/11/12 04:54:54;;;;;;;1.50;1.50;;;8.90;86.00;;;;;;5004034;28;20204;-71
2022/11/12 04:57:21;;;;;;;1.70;1.63;;;8.80;86.10;;;;;;5005098;28;20209;-72
2022/11/12 04:59:47;;;;;;;3.80;2.00;;;8.80;86.20;;;;;;5005513;28;20193;-72
2022/11/12 05:02:15;;;;;;;1.60;1.50;;;8.80;86.30;;;;;;5006831;28;20181;-73
2022/11/12 05:04:40;;;;;;;1.60;1.50;;;8.80;86.40;;;;;;5008733;28;20189;-74
2022/11/12 05:07:06;;;;;;;1.57;1.50;;;8.80;86.70;;;;;;4987586;28;20213;-73
2022/11/12 05:09:32;;;;;;;0.90;0.90;;;8.80;86.80;;;;;;5003939;28;20188;-74
2022/11/12 05:11:58;;;;;;;1.67;1.57;;;8.90;86.80;;;;;;5004216;28;20173;-73
2022/11/12 05:14:24;;;;;;;2.70;1.53;;;8.90;87.00;;;;;;5006251;28;20292;-72
2022/11/12 05:16:50;;;;;;;1.20;1.20;;;8.90;86.90;;;;;;5006746;28;20177;-73
2022/11/12 05:19:16;;;;;;;1.60;1.50;;;8.90;86.90;;;;;;5005582;28;20244;-73
2022/11/12 05:24:27;;;;;;;2.10;1.50;;;8.90;86.70;;;;;;5005532;28;20208;-73
2022/11/12 05:26:53;;;;;;;2.67;1.67;;;8.90;86.90;;;;;;5005783;28;20656;-73
2022/11/12 05:29:18;;;;;;;5.43;1.67;;;8.90;86.80;;;;;;5005187;28;20176;-73
2022/11/12 05:31:44;;;;;;;1.70;1.60;;;8.90;86.70;;;;;;5004180;28;20198;-74
2022/11/12 05:34:10;;;;;;;1.67;1.37;;;8.90;86.60;;;;;;5007579;28;21075;-73
2022/11/12 05:36:36;;;;;;;1.60;1.50;;;8.90;86.70;;;;;;5005356;28;20180;-73
2022/11/12 05:39:02;;;;;;;3.87;1.70;;;8.90;86.60;;;;;;5005327;28;20193;-74
2022/11/12 05:41:28;;;;;;;1.50;1.40;;;8.90;86.60;;;;;;5002800;28;20197;-73
2022/11/12 05:43:53;;;;;;;3.97;1.57;;;8.90;86.60;;;;;;5005876;28;20574;-72
2022/11/12 05:46:19;;;;;;;2.53;1.60;;;8.90;86.60;;;;;;5004966;28;20881;-73
2022/11/12 05:48:45;;;;;;;1.40;1.30;;;8.90;86.50;;;;;;5007083;28;20299;-74
2022/11/12 05:51:12;;;;;;;1.97;1.30;;;9.00;86.50;;;;;;5005782;28;20784;-73
2022/11/12 05:53:38;;;;;;;1.73;1.70;;;9.00;86.60;;;;;;5005696;28;20185;-75
2022/11/12 05:56:06;;;;;;;1.83;1.70;;;9.10;86.50;;;;;;5004069;28;20192;-72
2022/11/12 05:58:32;;;;;;;1.90;1.73;;;9.10;86.60;;;;;;5006108;28;20685;-72
2022/11/12 06:00:58;;;;;;;2.90;1.60;;;9.10;86.20;;;;;;5003810;28;20185;-72
2022/11/12 06:03:24;;;;;;;1.67;1.57;;;9.10;86.40;;;;;;5006110;28;20259;-74
2022/11/12 06:05:51;;;;;;;2.17;2.00;;;9.10;86.30;;;;;;5005615;28;20181;-74
2022/11/12 06:08:17;;;;;;;2.87;2.17;;;9.20;86.40;;;;;;5004448;28;20749;-73
2022/11/12 06:10:47;;;;;;;2.00;1.90;;;9.20;86.40;;;;;;5003288;28;20208;-72
2022/11/12 06:13:13;;;;;;;1.77;1.73;;;9.20;85.80;;;;;;5005758;28;20185;-74
2022/11/12 06:15:39;;;;;;;1.73;1.73;;;9.30;86.30;;;;;;4986385;28;20208;-73
2022/11/12 06:18:04;;;;;;;1.93;1.83;;;9.40;86.30;;;;;;5004996;28;20196;-73
2022/11/12 06:20:30;;;;;;;2.17;2.07;;;9.40;86.60;;;;;;5002481;28;20198;-73
2022/11/12 06:22:56;;;;;;;2.53;1.30;;;9.40;86.40;;;;;;5005139;28;20228;-73
2022/11/12 06:25:22;;;;;;;1.92;1.80;;;9.50;86.60;;;;;;5001862;28;20271;-73
2022/11/12 06:27:48;;;;;;;5.30;2.27;;;9.60;87.00;;;;;;5003627;28;20205;-74
2022/11/12 06:30:13;;;;;;;2.83;2.22;;;9.60;86.80;;;;;;4986330;28;20223;-74
2022/11/12 06:32:39;;;;;;;2.33;2.30;;;9.80;86.90;;;;;;5003220;28;20756;-72
2022/11/12 06:35:05;;;;;;;2.67;2.47;;;10.00;86.90;;;;;;5004002;28;20196;-73
2022/11/12 06:37:31;;;;;;;2.03;1.90;;;10.30;87.20;;;;;;4986054;28;20193;-73
2022/11/12 06:39:57;;;;;;;2.53;2.42;;;10.60;87.20;;;;;;5002814;28;20183;-72
2022/11/12 06:42:23;;;;;;;2.17;2.03;;;11.00;86.80;;;;;;5006845;28;20192;-73
2022/11/12 06:44:48;;;;;;;5.63;3.40;;;11.50;88.30;;;;;;5003931;28;20193;-73
2022/11/12 06:47:14;;;;;;;2.58;2.45;;;12.00;87.80;;;;;;5003568;28;20213;-74
2022/11/12 06:49:39;;;;;;;2.70;2.60;;;12.60;86.40;;;;;;5000138;28;20189;-74
2022/11/12 06:52:05;;;;;;;2.75;2.58;;;13.10;84.30;;;;;;5001885;28;20181;-76
2022/11/12 06:54:31;;;;;;;3.75;2.78;;;13.50;81.00;;;;;;5003428;28;20268;-74
2022/11/12 06:56:56;;;;;;;11.27;3.15;;;13.70;78.70;;;;;;5002939;28;20192;-72
2022/11/12 06:59:22;;;;;;;3.15;2.78;;;13.80;77.90;;;;;;4985470;28;20689;-73
2022/11/12 07:01:48;;;;;;;3.85;2.78;;;13.90;77.00;;;;;;5002323;28;20177;-74
2022/11/12 07:04:13;;;;;;;2.80;2.60;;;13.90;76.90;;;;;;5002021;28;20616;-72
2022/11/12 07:06:39;;;;;;;3.17;2.63;;;13.80;76.00;;;;;;5002422;28;20683;-73
2022/11/12 07:09:05;;;;;;;3.10;2.90;;;13.70;76.60;;;;;;5002579;28;20228;-74
2022/11/12 07:11:31;;;;;;;3.00;2.65;;;13.60;76.20;;;;;;4985221;28;20368;-73
2022/11/12 07:13:57;;;;;;;3.75;2.53;;;13.60;76.20;;;;;;5001687;28;20896;-73
2022/11/12 07:16:22;;;;;;;3.08;2.78;;;13.40;76.30;;;;;;4984597;28;20200;-73
2022/11/12 07:18:49;;;;;;;3.78;3.00;;;13.30;76.40;;;;;;4986567;28;20683;-73
2022/11/12 07:21:18;;;;;;;3.22;3.05;;;13.10;76.00;;;;;;5004593;28;20232;-72
2022/11/12 07:23:45;;;;;;;3.10;2.80;;;13.10;76.60;;;;;;5003442;28;20229;-73
2022/11/12 07:26:19;;;;;;;3.15;2.97;;;13.00;76.60;;;;;;5003741;28;20242;-72
2022/11/12 07:28:45;;;;;;;2.40;2.30;;;12.90;76.10;;;;;;4985551;28;20208;-73
2022/11/12 07:31:13;;;;;;;2.67;2.47;;;12.80;76.60;;;;;;5001721;28;20191;-73
2022/11/12 07:33:39;;;;;;;3.05;2.70;;;12.70;76.50;;;;;;5002546;28;20586;-73
2022/11/12 07:36:09;;;;;;;2.90;2.80;;;12.60;75.60;;;;;;4986420;28;20184;-73
2022/11/12 07:38:37;;;;;;;2.80;2.70;;;12.50;76.20;;;;;;5001489;28;20220;-72
2022/11/12 07:41:13;;;;;;;2.67;2.45;;;12.40;76.10;;;;;;4990160;28;20219;-75
2022/11/12 07:43:40;;;;;;;2.28;2.13;;;12.30;76.10;;;;;;5002322;28;20930;-74
2022/11/12 07:46:09;;;;;;;3.10;2.90;;;12.20;76.80;;;;;;4983799;28;20181;-73
2022/11/12 07:48:35;;;;;;;3.17;2.65;;;12.20;77.20;;;;;;5001210;28;20204;-73
2022/11/12 07:51:01;;;;;;;3.67;2.28;;;12.10;77.60;;;;;;5003551;28;20192;-73
2022/11/12 07:53:27;;;;;;;2.13;2.03;;;12.20;77.50;;;;;;5004143;28;20259;-74
2022/11/12 07:55:54;;;;;;;1.67;1.67;;;12.20;78.00;;;;;;5000048;28;20189;-73
2022/11/12 07:58:20;;;;;;;2.70;2.10;;;12.30;77.60;;;;;;4985039;28;20782;-72
2022/11/12 08:00:46;;;;;;;2.03;1.90;;;12.20;77.50;;;;;;4984726;28;20177;-72
2022/11/12 08:03:11;;;;;;;2.05;1.95;;;12.20;77.60;;;;;;5002300;28;20189;-71
2022/11/12 08:05:37;;;;;;;2.08;1.98;;;12.30;77.80;;;;;;5001003;28;20880;-72
2022/11/12 08:08:03;;;;;;;2.55;2.35;;;12.30;77.70;;;;;;4998039;28;20342;-71
2022/11/12 08:10:29;;;;;;;2.95;2.05;;;12.30;77.50;;;;;;5000969;28;20858;-73
2022/11/12 08:12:57;;;;;;;2.05;2.00;;;12.30;77.20;;;;;;5001697;28;20187;-72
2022/11/12 08:15:23;;;;;;;2.30;2.20;;;12.40;76.90;;;;;;4988604;28;20274;-71
2022/11/12 08:17:49;;;;;;;2.22;2.10;;;12.40;75.70;;;;;;5004883;28;20275;-71
2022/11/12 08:20:14;;;;;;;1.90;1.80;;;12.30;76.20;;;;;;5005688;28;20724;-71
2022/11/12 08:22:40;;;;;;;2.00;1.83;;;12.30;75.70;;;;;;5004620;28;20188;-72
2022/11/12 08:25:07;;;;;;;2.50;2.40;;;12.30;76.40;;;;;;5004690;28;20264;-71
2022/11/12 08:27:33;;;;;;;2.50;2.40;;;12.20;75.90;;;;;;5007209;28;20244;-72
2022/11/12 08:29:58;;;;;;;5.22;2.53;;;12.20;76.70;;;;;;5006135;28;20267;-72
2022/11/12 08:32:24;;;;;;;3.65;2.10;;;12.20;77.20;;;;;;5007559;28;20634;-73
2022/11/12 08:34:49;;;;;;;2.90;2.70;;;12.30;76.40;;;;;;5003968;28;20733;-71
2022/11/12 08:37:15;;;;;;;2.08;1.92;;;12.30;76.40;;;;;;4988584;28;20199;-75
2022/11/12 08:39:41;;;;;;;2.15;2.05;;;12.30;76.80;;;;;;5004904;28;20220;-70
2022/11/12 08:42:07;;;;;;;2.67;2.55;;;12.30;75.30;;;;;;5004555;28;20205;-73
2022/11/12 08:44:32;;;;;;;3.08;2.05;;;12.20;75.40;;;;;;5004365;28;20181;-73
2022/11/12 08:46:58;;;;;;;2.47;2.28;;;12.00;74.80;;;;;;5002182;28;20188;-71
2022/11/12 08:49:24;;;;;;;2.70;2.05;;;12.00;75.50;;;;;;5003853;28;20192;-71
2022/11/12 08:51:50;;;;;;;2.35;2.25;;;12.00;75.10;;;;;;5008467;28;20204;-73
2022/11/12 08:54:16;;;;;;;2.60;2.40;;;12.00;75.70;;;;;;5005742;28;20177;-72
2022/11/12 08:56:41;;;;;;;1.88;1.88;;;11.90;75.40;;;;;;5008630;28;20189;-72
2022/11/12 08:59:07;;;;;;;2.20;2.10;;;11.80;75.40;;;;;;5006166;28;20189;-71
2022/11/12 09:01:33;;;;;;;2.70;1.98;;;11.80;75.40;;;;;;5006068;28;20296;-72
2022/11/12 09:03:58;;;;;;;2.08;1.98;;;11.90;75.60;;;;;;5002865;28;20184;-72
2022/11/12 09:06:24;;;;;;;1.67;1.58;;;11.90;75.20;;;;;;5005041;28;20701;-73
2022/11/12 09:08:50;;;;;;;2.38;2.17;;;12.00;75.80;;;;;;5005996;28;20724;-72
2022/11/12 09:11:16;;;;;;;2.15;1.95;;;12.20;76.10;;;;;;5003130;28;20188;-71
2022/11/12 09:13:42;;;;;;;2.13;1.92;;;12.30;75.00;;;;;;5006717;28;20177;-72
2022/11/12 09:16:09;;;;;;;3.75;1.88;;;12.30;74.20;;;;;;5001899;28;20193;-72
2022/11/12 09:18:36;;;;;;;2.00;1.90;;;12.40;74.20;;;;;;5005142;28;20686;-72
2022/11/12 09:21:11;;;;;;;1.90;1.80;;;12.40;73.50;;;;;;5006367;28;20675;-70
2022/11/12 09:23:37;;;;;;;1.70;1.70;;;12.30;73.40;;;;;;5004195;28;20999;-71
2022/11/12 09:26:04;;;;;;;1.90;1.80;;;12.30;73.40;;;;;;5007431;28;20185;-71
2022/11/12 09:28:30;;;;;;;1.20;1.20;;;12.40;73.80;;;;;;5006813;28;20224;-71
2022/11/12 09:30:55;;;;;;;1.35;1.35;;;12.50;74.60;;;;;;5005437;28;20759;-72
2022/11/12 09:33:24;;;;;;;2.10;1.83;;;12.60;73.80;;;;;;5004661;28;20181;-72
2022/11/12 09:35:51;;;;;;;1.42;1.42;;;12.60;73.60;;;;;;5004921;28;20791;-72
2022/11/12 09:38:17;;;;;;;1.67;1.67;;;12.70;73.60;;;;;;5006613;28;20200;-72
2022/11/12 09:40:46;;;;;;;2.17;1.67;;;12.60;73.80;;;;;;5005594;28;20267;-73
2022/11/12 09:43:22;;;;;;;1.95;1.40;;;12.40;72.90;;;;;;5005215;28;20185;-70
2022/11/12 09:45:50;;;;;;;1.20;1.20;;;12.20;72.50;;;;;;4988723;28;21626;-71
2022/11/12 09:48:28;;;;;;;0.85;0.85;;;12.20;73.00;;;;;;5005256;28;20283;-72
2022/11/12 09:51:05;;;;;;;2.15;1.25;;;12.30;72.50;;;;;;5005001;28;20184;-72
2022/11/12 09:53:57;;;;;;;1.17;1.05;;;12.20;72.70;;;;;;5006026;28;20577;-71
2022/11/12 09:56:24;;;;;;;1.17;0.98;;;12.10;73.00;;;;;;5002818;28;20215;-72
2022/11/12 09:58:51;;;;;;;1.52;1.08;;;12.10;72.60;;;;;;5002111;28;20621;-71
2022/11/12 10:01:41;;;;;;;1.17;0.90;;;12.10;73.10;;;;;;5004407;28;20185;-71
2022/11/12 10:04:27;;;;;;;1.05;1.05;;;12.00;72.90;;;;;;5001689;28;20275;-72
2022/11/12 10:07:02;;;;;;;0.70;0.70;;;12.00;73.40;;;;;;5005089;28;20782;-69
2022/11/12 10:09:38;;;;;;;1.10;1.10;;;12.10;72.80;;;;;;5006312;28;20649;-72
2022/11/12 10:12:31;;;;;;;1.02;0.82;;;12.10;73.10;;;;;;5004669;28;20702;-74
2022/11/12 10:18:13;;;;;;;1.08;0.93;;;12.20;73.20;;;;;;5003839;28;20214;-71
2022/11/12 10:20:44;;;;;;;0.80;0.80;;;12.10;73.40;;;;;;5003541;28;20173;-71
2022/11/12 10:23:26;;;;;;;1.23;1.17;;;12.20;72.90;;;;;;5002748;28;20177;-71
2022/11/12 10:25:59;;;;;;;0.90;0.90;;;12.30;72.80;;;;;;5004585;28;20303;-71
2022/11/12 10:28:33;;;;;;;0.70;0.70;;;12.40;72.80;;;;;;5002344;28;20220;-71
2022/11/12 10:31:06;;;;;;;1.00;0.90;;;12.40;73.00;;;;;;5002211;28;20192;-71
2022/11/12 10:33:32;;;;;;;1.30;1.30;;;12.50;72.90;;;;;;5003279;28;20632;-70
2022/11/12 10:36:21;;;;;;;1.60;0.90;;;12.50;71.90;;;;;;5002309;28;20181;-73
2022/11/12 10:38:50;;;;;;;1.00;1.00;;;12.20;72.00;;;;;;5002392;28;20189;-72
2022/11/12 10:41:26;;;;;;;1.10;1.10;;;12.20;72.80;;;;;;5005525;28;20650;-71
2022/11/12 10:43:54;;;;;;;1.50;1.40;;;12.20;73.10;;;;;;5002971;28;20284;-70
2022/11/12 10:46:23;;;;;;;1.08;1.08;;;12.10;73.20;;;;;;5003028;28;20190;-71
2022/11/12 10:48:56;;;;;;;1.10;1.10;;;11.90;73.30;;;;;;5003954;28;20208;-71
2022/11/12 10:51:36;;;;;;;0.95;0.95;;;11.90;73.60;;;;;;5003277;28;20228;-71
2022/11/12 10:54:35;;;;;;;0.70;0.68;;;11.90;74.40;;;;;;5005296;28;20232;-71
2022/11/12 10:57:25;;;;;;;0.93;0.93;;;11.90;74.40;;;;;;4927206;29;20239;-71
2022/11/12 11:00:17;;;;;;;1.05;1.05;;;11.90;74.40;;;;;;4927690;29;20199;-71
2022/11/12 11:02:51;;;;;;;1.65;1.33;;;11.90;74.50;;;;;;4929629;29;20211;-71
2022/11/12 11:05:47;;;;;;;1.30;1.30;;;11.90;74.90;;;;;;4926114;29;20180;-72
2022/11/12 11:08:12;;;;;;;1.25;1.25;;;11.90;75.00;;;;;;4930325;29;20242;-71
2022/11/12 11:10:38;;;;;;;1.63;1.63;;;11.90;75.20;;;;;;4928675;29;20195;-70
2022/11/12 11:13:26;;;;;;;3.05;1.35;;;12.00;75.20;;;;;;4928447;29;20195;-71
2022/11/12 11:16:04;;;;;;;1.17;1.08;;;12.00;75.30;;;;;;4928161;29;20196;-73
2022/11/12 11:18:33;;;;;;;1.15;1.00;;;12.10;75.10;;;;;;4929237;29;20190;-70
2022/11/12 11:21:08;;;;;;;1.40;1.30;;;12.10;75.00;;;;;;4914554;29;20217;-71
2022/11/12 11:23:40;;;;;;;1.30;1.30;;;12.10;74.90;;;;;;4930843;29;20196;-73
2022/11/12 11:26:39;;;;;;;1.80;1.00;;;12.10;74.70;;;;;;4930671;28;20206;-74
2022/11/12 11:29:26;;;;;;;6.40;1.45;;;12.20;74.90;;;;;;4924414;29;20270;-74
2022/11/12 11:32:10;;;;;;;2.17;1.27;;;12.10;75.00;;;;;;4923425;29;20222;-74
2022/11/12 11:35:10;;;;;;;1.38;1.35;;;12.00;74.90;;;;;;4935321;28;20292;-74
2022/11/12 11:37:51;;;;;;;1.52;1.23;;;12.00;74.70;;;;;;4939982;28;20230;-75
2022/11/12 11:40:30;;;;;;;0.80;0.80;;;11.80;74.80;;;;;;4940785;28;20198;-76
2022/11/12 11:42:58;;;;;;;1.50;0.90;;;11.80;75.20;;;;;;4923416;28;20273;-76
2022/11/12 11:45:49;;;;;;;1.08;1.08;;;11.80;75.40;;;;;;4940947;28;20241;-75
2022/11/12 11:48:47;;;;;;;1.20;1.20;;;11.80;75.20;;;;;;4940553;28;20214;-77
2022/11/12 11:51:32;;;;;;;0.93;0.93;;;11.80;75.60;;;;;;4942239;28;20290;-76
2022/11/12 11:54:07;;;;;;;0.98;0.98;;;11.70;75.70;;;;;;4939532;28;20203;-76
2022/11/12 11:56:40;;;;;;;0.82;0.82;;;11.70;75.50;;;;;;4943141;28;20256;-77
2022/11/12 11:59:44;;;;;;;0.82;0.82;;;11.70;75.50;;;;;;4942334;28;20783;-78
2022/11/12 12:02:16;;;;;;;0.70;0.70;;;11.80;75.40;;;;;;4884038;29;20686;-75
2022/11/12 12:04:50;;;;;;;1.00;1.00;;;11.80;75.20;;;;;;4900204;29;21124;-73
2022/11/12 12:07:45;;;;;;;1.13;1.13;;;11.80;75.20;;;;;;4941107;28;20257;-74
2022/11/12 12:10:10;;;;;;;1.10;1.00;;;11.80;75.30;;;;;;4939115;29;20677;-75
2022/11/12 12:13:01;;;;;;;0.60;0.60;;;11.70;75.30;;;;;;4943115;28;20187;-75
2022/11/12 12:16:02;;;;;;;0.77;0.77;;;11.70;74.90;;;;;;4939617;28;20222;-74
2022/11/12 12:18:49;;;;;;;0.75;0.75;;;11.60;75.40;;;;;;4903863;29;20200;-74
2022/11/12 12:21:16;;;;;;;0.88;0.88;;;11.50;75.30;;;;;;4902080;29;20352;-73
2022/11/12 12:23:51;;;;;;;0.93;0.90;;;11.60;75.40;;;;;;4902436;29;20196;-74
2022/11/12 12:26:21;;;;;;;1.20;1.20;;;11.60;75.20;;;;;;4902720;29;20867;-74
2022/11/12 12:29:03;;;;;;;0.90;0.90;;;11.60;75.70;;;;;;4902438;29;20227;-74
2022/11/12 12:31:37;;;;;;;1.00;1.00;;;11.70;75.80;;;;;;4905748;29;20216;-73
2022/11/12 12:34:11;;;;;;;1.75;1.65;;;11.80;76.00;;;;;;4937937;28;20654;-74
2022/11/12 12:36:39;;;;;;;3.42;1.85;;;11.80;76.00;;;;;;4945242;28;20281;-74
2022/11/12 12:39:18;;;;;;;1.45;1.30;;;11.90;76.10;;;;;;4939690;28;20258;-74
2022/11/12 12:41:55;;;;;;;1.50;1.50;;;11.90;76.00;;;;;;4939828;28;20194;-76
2022/11/12 12:44:58;;;;;;;1.58;1.27;;;11.90;75.90;;;;;;4939941;28;20923;-72
2022/11/12 12:47:12;;;;;;;1.10;1.10;;;12.00;76.10;;;;;;4938587;28;20191;-73
2022/11/12 12:49:40;;;;;;;1.98;1.30;;;12.00;76.00;;;;;;4941114;28;20187;-73
2022/11/12 12:52:06;;;;;;;1.40;1.35;;;12.00;76.00;;;;;;4939117;28;20191;-73
2022/11/12 12:54:53;;;;;;;1.10;1.02;;;12.00;76.00;;;;;;4945467;28;20260;-74
2022/11/12 12:57:24;;;;;;;1.75;1.38;;;12.00;76.00;;;;;;5001467;28;20235;-74
2022/11/12 13:00:10;;;;;;;1.10;1.10;;;12.00;75.90;;;;;;5005585;28;20188;-74
2022/11/12 13:02:37;;;;;;;2.13;1.83;;;12.00;76.20;;;;;;5002064;28;20188;-74
2022/11/12 13:05:04;;;;;;;1.08;0.90;;;12.00;76.70;;;;;;5004010;28;20200;-75
2022/11/12 13:07:47;;;;;;;0.75;0.75;;;11.80;76.10;;;;;;5003585;28;20247;-74
2022/11/12 13:10:37;;;;;;;0.98;0.98;;;11.70;76.40;;;;;;5004174;28;20185;-74
2022/11/12 13:13:21;;;;;;;0.88;0.88;;;11.70;76.50;;;;;;5005843;28;20250;-73
2022/11/12 13:15:48;;;;;;;0.65;0.65;;;11.70;76.50;;;;;;5004377;28;20265;-75
2022/11/12 13:18:35;;;;;;;0.73;0.73;;;11.70;77.30;;;;;;5006544;28;20193;-74
2022/11/12 13:21:14;;;;;;;0.88;0.88;;;11.80;77.10;;;;;;5006293;28;20280;-74
2022/11/12 13:24:05;;;;;;;0.70;0.70;;;11.70;77.40;;;;;;5005447;28;20189;-74
2022/11/12 13:26:55;;;;;;;0.90;0.90;;;11.80;77.60;;;;;;5003736;28;20659;-76
2022/11/12 13:29:39;;;;;;;0.60;0.60;;;11.80;78.30;;;;;;5003345;28;20730;-76
2022/11/12 13:32:45;;;;;;;1.00;0.90;;;11.70;78.30;;;;;;4989208;28;20192;-73